Latest Coastal Weather Observations for Noarlunga

IDS60701

Issued at 4:15 pm CST Wednesday 1 October 2014 (issued every 10 minutes, with the page automatically refreshed every 10 minutes)

About coastal observations | Map of coastal stations | Coastal observations for SA | Marine services | Other Formats
Station Details ID: 023885 Name: NOARLUNGA Lat: -35.16 Lon: 138.51 Height: 55.0 m
Data from the previous 72 hours. | See also: Recent months at Noarlunga
Date/Time
CST
Temp

°C
Wind Pressure Rain
since 9am
mm
Weather Cloud Vis
km
Sea
Height
m
Swell
Dir
 
Speed
knots
Gust
knots
hPa Trend Height
m
Period
s
Dir
01/04:00pm 16.0 WSW 11 16 - - 0.0 - - - - - - -
01/03:30pm 16.7 WSW 12 17 - - 0.0 - - - - - - -
01/03:00pm 16.5 WSW 11 17 - - 0.0 - - - - - - -
01/02:30pm 18.0 SW 8 16 - - 0.0 - - - - - - -
01/02:00pm 17.4 WSW 11 18 - - 0.0 - - - - - - -
01/01:30pm 16.6 WSW 12 18 - - 0.0 - - - - - - -
01/01:00pm 16.8 WSW 11 16 - - 0.0 - - - - - - -
01/12:30pm 17.2 WSW 10 16 - - 0.0 - - - - - - -
01/12:00pm 16.7 WSW 9 14 - - 0.0 - - - - - - -
01/11:30am 15.7 W 9 14 - - 0.0 - - - - - - -
01/11:00am 14.9 WSW 7 10 - - 0.0 - - - - - - -
01/10:30am 14.8 S 4 8 - - 0.0 - - - - - - -
01/10:00am 14.4 WSW 6 10 - - 0.0 - - - - - - -
01/09:30am 14.2 S 6 10 - - 0.0 - - - - - - -
01/09:00am 14.0 SSW 7 12 - - 0.0 - - - - - - -
01/08:30am 14.4 S 5 10 - - 0.0 - - - - - - -
01/08:00am 13.6 S 5 7 - - 0.0 - - - - - - -
01/07:30am 13.2 SE 3 4 - - 0.0 - - - - - - -
01/07:00am 11.6 E 2 2 - - 0.0 - - - - - - -
01/06:30am 9.9 E 2 3 - - 0.0 - - - - - - -
01/06:00am 9.8 ESE 2 3 - - 0.0 - - - - - - -
01/05:30am 9.1 E 2 3 - - 0.0 - - - - - - -
01/05:00am 8.8 SSE 3 4 - - 0.0 - - - - - - -
01/04:30am 9.0 SE 2 3 - - 0.0 - - - - - - -
01/04:00am 9.5 SSE 3 3 - - 0.0 - - - - - - -
01/03:30am 10.3 SSE 3 4 - - 0.0 - - - - - - -
01/03:00am 9.9 SSE 3 4 - - 0.0 - - - - - - -
01/02:30am 9.8 SSE 2 3 - - 0.0 - - - - - - -
01/02:00am 10.5 S 3 3 - - 0.0 - - - - - - -
01/01:30am 11.2 S 4 6 - - 0.0 - - - - - - -
01/01:00am 11.1 S 3 6 - - 0.0 - - - - - - -
01/12:30am 11.1 S 4 5 - - 0.0 - - - - - - -
01/12:00am 11.4 S 7 10 - - 0.0 - - - - - - -
 
Date/Time
CST
Temp

°C
Wind Pressure Rain
since 9am
mm
Weather Cloud Vis
km
Sea
Height
m
Swell
Dir
 
Speed
knots
Gust
knots
hPa Trend Height
m
Period
s
Dir
30/11:30pm 11.4 S 4 8 - - 0.0 - - - - - - -
30/11:00pm 11.6 SSW 4 6 - - 0.0 - - - - - - -
30/10:30pm 11.9 S 10 15 - - 0.0 - - - - - - -
30/10:00pm 12.4 SW 8 13 - - 0.0 - - - - - - -
30/09:30pm 12.6 SW 12 19 - - 0.0 - - - - - - -
30/09:00pm 13.0 SW 12 17 - - 0.0 - - - - - - -
30/08:30pm 13.5 WSW 14 20 - - 0.0 - - - - - - -
30/08:00pm 13.9 SW 15 25 - - 0.0 - - - - - - -
30/07:53pm 14.0 SW 15 25 - - 0.0 - - - - - - -
30/07:30pm 14.3 WSW 10 16 - - 0.0 - - - - - - -
30/07:00pm 14.2 W 11 18 - - 0.0 - - - - - - -
30/06:30pm 14.2 W 11 20 - - 0.0 - - - - - - -
30/06:00pm 14.7 W 15 24 - - 0.0 - - - - - - -
30/05:30pm 15.3 W 14 21 - - 0.0 - - - - - - -
30/05:00pm 15.9 W 16 24 - - 0.0 - - - - - - -
30/04:30pm 16.2 W 16 24 - - 0.0 - - - - - - -
30/04:21pm 16.3 W 15 25 - - 0.0 - - - - - - -
30/04:00pm 16.7 W 15 24 - - 0.0 - - - - - - -
30/03:30pm 16.8 W 15 25 - - 0.0 - - - - - - -
30/03:27pm 17.0 W 15 25 - - 0.0 - - - - - - -
30/03:00pm 17.0 W 15 23 - - 0.0 - - - - - - -
30/02:30pm 16.0 W 15 23 - - 0.0 - - - - - - -
30/02:00pm 15.9 WSW 14 25 - - 0.0 - - - - - - -
30/01:30pm 16.1 W 15 26 - - 0.0 - - - - - - -
30/01:00pm 14.9 W 18 29 - - 0.0 - - - - - - -
30/12:48pm 17.2 W 15 26 - - 0.0 - - - - - - -
30/12:30pm 17.9 W 14 21 - - 0.0 - - - - - - -
30/12:01pm 18.0 W 15 26 - - 0.0 - - - - - - -
30/12:00pm 18.1 W 14 25 - - 0.0 - - - - - - -
30/11:56am 17.9 W 15 25 - - 0.0 - - - - - - -
30/11:30am 18.8 WNW 13 20 - - 0.0 - - - - - - -
30/11:00am 18.8 WNW 12 17 - - 0.0 - - - - - - -
30/10:30am 18.0 NW 14 22 - - 0.0 - - - - - - -
30/10:00am 18.0 NW 13 20 - - 0.0 - - - - - - -
30/09:30am 18.6 NW 12 21 - - 0.0 - - - - - - -
30/09:00am 17.6 NW 13 20 - - 0.0 - - - - - - -
30/08:30am 17.4 NW 13 22 - - 0.0 - - - - - - -
30/08:00am 17.5 NW 17 23 - - 0.0 - - - - - - -
30/07:30am 15.8 NNW 13 18 - - 0.0 - - - - - - -
30/07:00am 15.0 N 15 21 - - 0.0 - - - - - - -
30/06:30am 14.5 N 13 20 - - 0.0 - - - - - - -
30/06:00am 13.5 N 13 17 - - 0.0 - - - - - - -
30/05:30am 13.9 N 14 20 - - 0.0 - - - - - - -
30/05:00am 14.2 N 13 18 - - 0.0 - - - - - - -
30/04:30am 13.2 N 12 15 - - 0.0 - - - - - - -
30/04:00am 13.2 N 11 15 - - 0.0 - - - - - - -
30/03:30am 13.7 N 12 18 - - 0.0 - - - - - - -
30/03:00am 13.7 N 10 15 - - 0.0 - - - - - - -
30/02:30am 13.1 N 5 8 - - 0.0 - - - - - - -
30/02:00am 13.0 N 5 7 - - 0.0 - - - - - - -
30/01:30am 12.7 NNE 5 7 - - 0.0 - - - - - - -
30/01:00am 12.9 NNE 5 7 - - 0.0 - - - - - - -
30/12:30am 12.7 NNE 4 6 - - 0.0 - - - - - - -
30/12:00am 12.5 N 3 4 - - 0.0 - - - - - - -
 
Date/Time
CST
Temp

°C
Wind Pressure Rain
since 9am
mm
Weather Cloud Vis
km
Sea
Height
m
Swell
Dir
 
Speed
knots
Gust
knots
hPa Trend Height
m
Period
s
Dir
29/11:30pm 12.6 NNE 3 4 - - 0.0 - - - - - - -
29/11:00pm 12.7 NNE 2 3 - - 0.0 - - - - - - -
29/10:30pm 13.4 N 2 3 - - 0.0 - - - - - - -
29/10:00pm 13.1 NNW 2 3 - - 0.0 - - - - - - -
29/09:30pm 13.2 NNW 1 2 - - 0.0 - - - - - - -
29/09:00pm 13.5 WNW 2 2 - - 0.0 - - - - - - -
29/08:30pm 13.8 WNW 2 3 - - 0.0 - - - - - - -
29/08:00pm 14.2 W 3 4 - - 0.0 - - - - - - -
29/07:30pm 14.6 WNW 3 4 - - 0.0 - - - - - - -
29/07:00pm 16.6 NW 6 10 - - 0.0 - - - - - - -
29/06:30pm 17.1 NNW 5 7 - - 0.0 - - - - - - -
29/06:00pm 17.9 N 6 8 - - 0.0 - - - - - - -
29/05:30pm 18.4 NNW 6 10 - - 0.0 - - - - - - -
29/05:00pm 18.8 NW 7 10 - - 0.0 - - - - - - -
29/04:30pm 18.8 NW 9 13 - - 0.0 - - - - - - -
29/04:00pm 19.3 NW 9 15 - - 0.0 - - - - - - -
29/03:30pm 19.1 NW 11 16 - - 0.0 - - - - - - -
29/03:00pm 19.4 NNW 11 15 - - 0.0 - - - - - - -
29/02:30pm 19.8 NNW 10 16 - - 0.0 - - - - - - -
29/02:00pm 19.1 NNW 10 14 - - 0.0 - - - - - - -
29/01:30pm 19.5 NW 9 12 - - 0.0 - - - - - - -
29/01:00pm 18.9 NNW 11 17 - - 0.0 - - - - - - -
29/12:30pm 19.7 N 11 17 - - 0.0 - - - - - - -
29/12:00pm 18.0 N 11 17 - - 0.0 - - - - - - -
29/11:30am 18.2 NW 11 15 - - 0.0 - - - - - - -
29/11:00am 17.4 N 13 17 - - 0.0 - - - - - - -
29/10:30am 17.1 NNW 12 17 - - 0.0 - - - - - - -
29/10:00am 16.6 NNW 12 18 - - 0.0 - - - - - - -
29/09:30am 16.4 NNW 12 16 - - 0.0 - - - - - - -
29/09:00am 15.4 N 10 15 - - 0.0 - - - - - - -
29/08:30am 15.2 NNW 10 14 - - 0.0 - - - - - - -
29/08:00am 14.5 WNW 6 9 - - 0.0 - - - - - - -
29/07:30am 14.2 WNW 6 9 - - 0.0 - - - - - - -
29/07:00am 14.5 WNW 6 9 - - 0.0 - - - - - - -
29/06:30am 13.9 WNW 7 10 - - 0.0 - - - - - - -
29/06:00am 13.6 WNW 5 8 - - 0.0 - - - - - - -
29/05:30am 13.6 WNW 6 10 - - 0.0 - - - - - - -
29/05:00am 13.4 W 4 8 - - 0.0 - - - - - - -
29/04:30am 13.8 WNW 6 11 - - 0.0 - - - - - - -
29/04:00am 13.9 WNW 7 10 - - 0.0 - - - - - - -
29/03:30am 14.0 WNW 9 14 - - 0.0 - - - - - - -
29/03:00am 14.2 WNW 9 14 - - 0.0 - - - - - - -
29/02:30am 14.3 W 11 17 - - 0.0 - - - - - - -
29/02:00am 14.1 WNW 8 13 - - 0.0 - - - - - - -
29/01:30am 14.2 WNW 11 15 - - 0.0 - - - - - - -
29/01:00am 14.4 NW 11 16 - - 0.0 - - - - - - -
29/12:30am 14.4 WNW 10 15 - - 0.0 - - - - - - -
29/12:00am 14.6 WNW 11 14 - - 0.0 - - - - - - -
 
Date/Time
CST
Temp

°C
Wind Pressure Rain
since 9am
mm
Weather Cloud Vis
km
Sea
Height
m
Swell
Dir
 
Speed
knots
Gust
knots
hPa Trend Height
m
Period
s
Dir
28/11:30pm 14.8 WNW 11 16 - - 0.0 - - - - - - -
28/11:00pm 14.8 NW 10 14 - - 0.0 - - - - - - -
28/10:30pm 14.7 NW 9 14 - - 0.0 - - - - - - -
28/10:00pm 14.7 NW 8 12 - - 0.0 - - - - - - -
28/09:30pm 14.5 NNW 5 8 - - 0.0 - - - - - - -
28/09:00pm 14.8 NW 6 9 - - 0.0 - - - - - - -
28/08:30pm 14.8 WNW 6 9 - - 0.0 - - - - - - -
28/08:00pm 15.0 W 8 12 - - 0.0 - - - - - - -
28/07:30pm 15.1 W 10 16 - - 0.0 - - - - - - -
28/07:00pm 15.1 WSW 8 12 - - 0.0 - - - - - - -
28/06:30pm 15.4 WSW 8 13 - - 0.0 - - - - - - -
28/06:00pm 16.3 WSW 4 6 - - 0.0 - - - - - - -
28/05:30pm 16.9 WSW 5 11 - - 0.0 - - - - - - -
28/05:00pm 17.0 SW 6 11 - - 0.0 - - - - - - -
28/04:30pm 17.1 SW 7 13 - - 0.0 - - - - - - -

Other Formats:

Comma delimited format used in spreadsheet applications
http://www.bom.gov.au/fwo/IDS60701/IDS60701.94808.axf

JavaScript Object Notation format (JSON) in row-major order
http://www.bom.gov.au/fwo/IDS60701/IDS60701.94808.json